sensor_id;sensor_type;location;lat;lon;timestamp;P1;durP1;ratioP1;P2;durP2;ratioP2
20559;SDS011;10438;51.454;6.718;2022-07-25T00:02:24;8.55;;;5.50;;
20559;SDS011;10438;51.454;6.718;2022-07-25T00:04:50;8.68;;;5.85;;
20559;SDS011;10438;51.454;6.718;2022-07-25T00:07:15;7.35;;;5.28;;
20559;SDS011;10438;51.454;6.718;2022-07-25T00:09:41;8.30;;;5.47;;
20559;SDS011;10438;51.454;6.718;2022-07-25T00:12:06;7.03;;;5.38;;
20559;SDS011;10438;51.454;6.718;2022-07-25T00:14:32;9.98;;;5.57;;
20559;SDS011;10438;51.454;6.718;2022-07-25T00:16:58;9.30;;;4.93;;
20559;SDS011;10438;51.454;6.718;2022-07-25T00:19:23;9.77;;;5.28;;
20559;SDS011;10438;51.454;6.718;2022-07-25T00:21:49;16.92;;;5.47;;
20559;SDS011;10438;51.454;6.718;2022-07-25T00:24:15;10.98;;;5.50;;
20559;SDS011;10438;51.454;6.718;2022-07-25T00:26:41;8.80;;;5.20;;
20559;SDS011;10438;51.454;6.718;2022-07-25T00:29:06;8.98;;;5.57;;
20559;SDS011;10438;51.454;6.718;2022-07-25T00:31:32;9.85;;;5.45;;
20559;SDS011;10438;51.454;6.718;2022-07-25T00:33:57;7.43;;;5.15;;
20559;SDS011;10438;51.454;6.718;2022-07-25T00:36:23;8.95;;;5.55;;
20559;SDS011;10438;51.454;6.718;2022-07-25T00:38:48;9.20;;;5.15;;
20559;SDS011;10438;51.454;6.718;2022-07-25T00:41:14;8.13;;;5.50;;
20559;SDS011;10438;51.454;6.718;2022-07-25T00:43:43;11.68;;;5.35;;
20559;SDS011;10438;51.454;6.718;2022-07-25T00:46:13;7.80;;;5.13;;
20559;SDS011;10438;51.454;6.718;2022-07-25T00:48:39;7.68;;;5.15;;
20559;SDS011;10438;51.454;6.718;2022-07-25T00:51:05;7.93;;;5.65;;
20559;SDS011;10438;51.454;6.718;2022-07-25T00:53:32;9.63;;;5.22;;
20559;SDS011;10438;51.454;6.718;2022-07-25T00:55:57;11.35;;;5.43;;
20559;SDS011;10438;51.454;6.718;2022-07-25T00:58:23;11.13;;;5.60;;
20559;SDS011;10438;51.454;6.718;2022-07-25T01:00:48;8.07;;;5.20;;
20559;SDS011;10438;51.454;6.718;2022-07-25T01:03:14;6.50;;;5.05;;
20559;SDS011;10438;51.454;6.718;2022-07-25T01:05:40;12.13;;;5.50;;
20559;SDS011;10438;51.454;6.718;2022-07-25T01:08:06;8.13;;;5.35;;
20559;SDS011;10438;51.454;6.718;2022-07-25T01:10:32;7.70;;;5.25;;
20559;SDS011;10438;51.454;6.718;2022-07-25T01:12:58;8.68;;;5.70;;
20559;SDS011;10438;51.454;6.718;2022-07-25T01:15:24;10.48;;;5.20;;
20559;SDS011;10438;51.454;6.718;2022-07-25T01:17:50;13.35;;;5.78;;
20559;SDS011;10438;51.454;6.718;2022-07-25T01:20:20;7.00;;;4.85;;
20559;SDS011;10438;51.454;6.718;2022-07-25T01:22:47;10.10;;;6.32;;
20559;SDS011;10438;51.454;6.718;2022-07-25T01:25:14;7.65;;;5.43;;
20559;SDS011;10438;51.454;6.718;2022-07-25T01:27:40;8.35;;;5.63;;
20559;SDS011;10438;51.454;6.718;2022-07-25T01:30:07;9.60;;;5.18;;
20559;SDS011;10438;51.454;6.718;2022-07-25T01:32:34;7.25;;;4.93;;
20559;SDS011;10438;51.454;6.718;2022-07-25T01:35:01;8.45;;;5.63;;
20559;SDS011;10438;51.454;6.718;2022-07-25T01:37:27;10.75;;;5.57;;
20559;SDS011;10438;51.454;6.718;2022-07-25T01:39:53;9.20;;;5.90;;
20559;SDS011;10438;51.454;6.718;2022-07-25T01:42:18;14.65;;;6.72;;
20559;SDS011;10438;51.454;6.718;2022-07-25T01:44:44;7.75;;;5.53;;
20559;SDS011;10438;51.454;6.718;2022-07-25T01:47:09;9.13;;;5.65;;
20559;SDS011;10438;51.454;6.718;2022-07-25T01:49:35;9.07;;;6.22;;
20559;SDS011;10438;51.454;6.718;2022-07-25T01:52:00;10.40;;;5.88;;
20559;SDS011;10438;51.454;6.718;2022-07-25T01:54:29;11.98;;;6.20;;
20559;SDS011;10438;51.454;6.718;2022-07-25T01:56:56;11.65;;;6.00;;
20559;SDS011;10438;51.454;6.718;2022-07-25T01:59:21;10.52;;;6.00;;
20559;SDS011;10438;51.454;6.718;2022-07-25T02:01:47;10.98;;;5.50;;
20559;SDS011;10438;51.454;6.718;2022-07-25T02:04:12;11.73;;;5.95;;
20559;SDS011;10438;51.454;6.718;2022-07-25T02:06:38;9.50;;;5.80;;
20559;SDS011;10438;51.454;6.718;2022-07-25T02:09:05;10.27;;;6.18;;
20559;SDS011;10438;51.454;6.718;2022-07-25T02:11:31;8.25;;;5.72;;
20559;SDS011;10438;51.454;6.718;2022-07-25T02:13:57;10.90;;;5.95;;
20559;SDS011;10438;51.454;6.718;2022-07-25T02:16:22;9.57;;;5.35;;
20559;SDS011;10438;51.454;6.718;2022-07-25T02:18:48;8.95;;;6.43;;
20559;SDS011;10438;51.454;6.718;2022-07-25T02:21:13;10.68;;;6.20;;
20559;SDS011;10438;51.454;6.718;2022-07-25T02:23:39;9.13;;;5.57;;
20559;SDS011;10438;51.454;6.718;2022-07-25T02:26:04;9.98;;;5.80;;
20559;SDS011;10438;51.454;6.718;2022-07-25T02:28:30;11.70;;;5.72;;
20559;SDS011;10438;51.454;6.718;2022-07-25T02:30:56;11.15;;;5.72;;
20559;SDS011;10438;51.454;6.718;2022-07-25T02:33:21;10.10;;;6.22;;
20559;SDS011;10438;51.454;6.718;2022-07-25T02:35:47;11.93;;;6.28;;
20559;SDS011;10438;51.454;6.718;2022-07-25T02:38:14;9.07;;;6.30;;
20559;SDS011;10438;51.454;6.718;2022-07-25T02:40:44;9.15;;;6.10;;
20559;SDS011;10438;51.454;6.718;2022-07-25T02:43:10;10.07;;;6.43;;
20559;SDS011;10438;51.454;6.718;2022-07-25T02:45:36;12.15;;;6.07;;
20559;SDS011;10438;51.454;6.718;2022-07-25T02:48:02;11.02;;;6.32;;
20559;SDS011;10438;51.454;6.718;2022-07-25T02:50:27;13.60;;;5.80;;
20559;SDS011;10438;51.454;6.718;2022-07-25T02:52:53;8.00;;;5.70;;
20559;SDS011;10438;51.454;6.718;2022-07-25T02:55:18;11.40;;;6.15;;
20559;SDS011;10438;51.454;6.718;2022-07-25T02:57:44;12.05;;;6.18;;
20559;SDS011;10438;51.454;6.718;2022-07-25T03:00:09;10.65;;;6.28;;
20559;SDS011;10438;51.454;6.718;2022-07-25T03:02:36;10.68;;;5.93;;
20559;SDS011;10438;51.454;6.718;2022-07-25T03:05:04;13.70;;;6.15;;
20559;SDS011;10438;51.454;6.718;2022-07-25T03:07:39;14.02;;;6.10;;
20559;SDS011;10438;51.454;6.718;2022-07-25T03:10:06;8.63;;;5.55;;
20559;SDS011;10438;51.454;6.718;2022-07-25T03:12:33;7.43;;;5.50;;
20559;SDS011;10438;51.454;6.718;2022-07-25T03:14:59;9.43;;;6.25;;
20559;SDS011;10438;51.454;6.718;2022-07-25T03:17:26;8.68;;;5.93;;
20559;SDS011;10438;51.454;6.718;2022-07-25T03:19:52;8.90;;;6.07;;
20559;SDS011;10438;51.454;6.718;2022-07-25T03:22:18;11.95;;;5.90;;
20559;SDS011;10438;51.454;6.718;2022-07-25T03:24:44;9.43;;;6.10;;
20559;SDS011;10438;51.454;6.718;2022-07-25T03:27:09;9.85;;;6.28;;
20559;SDS011;10438;51.454;6.718;2022-07-25T03:29:35;9.00;;;5.93;;
20559;SDS011;10438;51.454;6.718;2022-07-25T03:32:00;9.55;;;5.90;;
20559;SDS011;10438;51.454;6.718;2022-07-25T03:34:26;11.95;;;6.32;;
20559;SDS011;10438;51.454;6.718;2022-07-25T03:36:52;10.10;;;5.97;;
20559;SDS011;10438;51.454;6.718;2022-07-25T03:39:17;9.98;;;6.18;;
20559;SDS011;10438;51.454;6.718;2022-07-25T03:41:45;10.48;;;5.80;;
20559;SDS011;10438;51.454;6.718;2022-07-25T03:44:11;8.93;;;6.05;;
20559;SDS011;10438;51.454;6.718;2022-07-25T03:46:37;10.88;;;5.95;;
20559;SDS011;10438;51.454;6.718;2022-07-25T03:49:03;9.68;;;5.57;;
20559;SDS011;10438;51.454;6.718;2022-07-25T03:51:29;10.60;;;6.20;;
20559;SDS011;10438;51.454;6.718;2022-07-25T03:53:55;10.52;;;5.55;;
20559;SDS011;10438;51.454;6.718;2022-07-25T03:56:36;11.52;;;5.70;;
20559;SDS011;10438;51.454;6.718;2022-07-25T03:59:07;11.68;;;5.78;;
20559;SDS011;10438;51.454;6.718;2022-07-25T04:01:34;10.63;;;5.97;;
20559;SDS011;10438;51.454;6.718;2022-07-25T04:03:59;10.25;;;6.15;;
20559;SDS011;10438;51.454;6.718;2022-07-25T04:06:25;9.98;;;5.40;;
20559;SDS011;10438;51.454;6.718;2022-07-25T04:08:51;10.82;;;5.72;;
20559;SDS011;10438;51.454;6.718;2022-07-25T04:11:17;10.70;;;6.00;;
20559;SDS011;10438;51.454;6.718;2022-07-25T04:13:43;10.15;;;5.45;;
20559;SDS011;10438;51.454;6.718;2022-07-25T04:16:09;10.68;;;6.45;;
20559;SDS011;10438;51.454;6.718;2022-07-25T04:18:35;8.30;;;5.57;;
20559;SDS011;10438;51.454;6.718;2022-07-25T04:21:01;9.70;;;5.60;;
20559;SDS011;10438;51.454;6.718;2022-07-25T04:23:28;10.07;;;5.25;;
20559;SDS011;10438;51.454;6.718;2022-07-25T04:25:54;10.25;;;5.78;;
20559;SDS011;10438;51.454;6.718;2022-07-25T04:28:20;7.53;;;5.38;;
20559;SDS011;10438;51.454;6.718;2022-07-25T04:30:45;8.60;;;5.80;;
20559;SDS011;10438;51.454;6.718;2022-07-25T04:33:12;12.25;;;5.80;;
20559;SDS011;10438;51.454;6.718;2022-07-25T04:35:37;10.48;;;5.70;;
20559;SDS011;10438;51.454;6.718;2022-07-25T04:38:03;7.93;;;5.60;;
20559;SDS011;10438;51.454;6.718;2022-07-25T04:40:29;13.40;;;5.70;;
20559;SDS011;10438;51.454;6.718;2022-07-25T04:42:55;10.07;;;5.93;;
20559;SDS011;10438;51.454;6.718;2022-07-25T04:45:20;8.77;;;6.03;;
20559;SDS011;10438;51.454;6.718;2022-07-25T04:47:46;9.57;;;5.43;;
20559;SDS011;10438;51.454;6.718;2022-07-25T04:50:12;11.50;;;6.13;;
20559;SDS011;10438;51.454;6.718;2022-07-25T04:52:38;10.63;;;5.50;;
20559;SDS011;10438;51.454;6.718;2022-07-25T04:55:04;17.98;;;6.07;;
20559;SDS011;10438;51.454;6.718;2022-07-25T04:57:30;10.05;;;5.70;;
20559;SDS011;10438;51.454;6.718;2022-07-25T04:59:55;10.43;;;5.40;;
20559;SDS011;10438;51.454;6.718;2022-07-25T05:02:22;12.02;;;5.60;;
20559;SDS011;10438;51.454;6.718;2022-07-25T05:04:48;12.82;;;5.97;;
20559;SDS011;10438;51.454;6.718;2022-07-25T05:07:14;10.10;;;5.97;;
20559;SDS011;10438;51.454;6.718;2022-07-25T05:09:39;8.55;;;5.25;;
20559;SDS011;10438;51.454;6.718;2022-07-25T05:12:05;13.35;;;5.95;;
20559;SDS011;10438;51.454;6.718;2022-07-25T05:14:31;9.35;;;6.00;;
20559;SDS011;10438;51.454;6.718;2022-07-25T05:16:56;7.60;;;5.30;;
20559;SDS011;10438;51.454;6.718;2022-07-25T05:19:22;10.52;;;5.63;;
20559;SDS011;10438;51.454;6.718;2022-07-25T05:21:47;11.77;;;5.88;;
20559;SDS011;10438;51.454;6.718;2022-07-25T05:24:15;9.63;;;5.72;;
20559;SDS011;10438;51.454;6.718;2022-07-25T05:26:41;9.48;;;5.55;;
20559;SDS011;10438;51.454;6.718;2022-07-25T05:29:06;12.15;;;6.05;;
20559;SDS011;10438;51.454;6.718;2022-07-25T05:31:32;9.18;;;5.45;;
20559;SDS011;10438;51.454;6.718;2022-07-25T05:33:57;12.95;;;5.95;;
20559;SDS011;10438;51.454;6.718;2022-07-25T05:36:23;7.85;;;5.55;;
20559;SDS011;10438;51.454;6.718;2022-07-25T05:38:48;9.48;;;5.70;;
20559;SDS011;10438;51.454;6.718;2022-07-25T05:41:14;8.65;;;5.45;;
20559;SDS011;10438;51.454;6.718;2022-07-25T05:43:40;8.63;;;5.43;;
20559;SDS011;10438;51.454;6.718;2022-07-25T05:46:10;9.75;;;5.50;;
20559;SDS011;10438;51.454;6.718;2022-07-25T05:48:35;12.63;;;5.35;;
20559;SDS011;10438;51.454;6.718;2022-07-25T05:51:01;9.93;;;5.90;;
20559;SDS011;10438;51.454;6.718;2022-07-25T05:53:27;13.20;;;5.88;;
20559;SDS011;10438;51.454;6.718;2022-07-25T05:55:52;9.48;;;5.72;;
20559;SDS011;10438;51.454;6.718;2022-07-25T05:58:18;7.72;;;5.57;;
20559;SDS011;10438;51.454;6.718;2022-07-25T06:00:44;13.98;;;6.00;;
20559;SDS011;10438;51.454;6.718;2022-07-25T06:03:09;15.18;;;5.57;;
20559;SDS011;10438;51.454;6.718;2022-07-25T06:05:35;9.60;;;6.68;;
20559;SDS011;10438;51.454;6.718;2022-07-25T06:08:00;7.95;;;5.68;;
20559;SDS011;10438;51.454;6.718;2022-07-25T06:10:26;11.27;;;5.50;;
20559;SDS011;10438;51.454;6.718;2022-07-25T06:12:51;16.27;;;5.63;;
20559;SDS011;10438;51.454;6.718;2022-07-25T06:15:17;12.10;;;5.90;;
20559;SDS011;10438;51.454;6.718;2022-07-25T06:17:43;9.98;;;5.53;;
20559;SDS011;10438;51.454;6.718;2022-07-25T06:20:08;10.68;;;6.13;;
20559;SDS011;10438;51.454;6.718;2022-07-25T06:22:34;9.68;;;5.22;;
20559;SDS011;10438;51.454;6.718;2022-07-25T06:25:00;11.27;;;5.95;;
20559;SDS011;10438;51.454;6.718;2022-07-25T06:27:27;11.52;;;6.00;;
20559;SDS011;10438;51.454;6.718;2022-07-25T06:29:52;10.40;;;5.43;;
20559;SDS011;10438;51.454;6.718;2022-07-25T06:32:18;7.90;;;5.10;;
20559;SDS011;10438;51.454;6.718;2022-07-25T06:34:44;9.07;;;5.55;;
20559;SDS011;10438;51.454;6.718;2022-07-25T06:37:09;11.32;;;5.95;;
20559;SDS011;10438;51.454;6.718;2022-07-25T06:39:35;11.63;;;6.07;;
20559;SDS011;10438;51.454;6.718;2022-07-25T06:42:00;7.53;;;5.32;;
20559;SDS011;10438;51.454;6.718;2022-07-25T06:44:27;11.80;;;5.70;;
20559;SDS011;10438;51.454;6.718;2022-07-25T06:46:56;10.50;;;5.57;;
20559;SDS011;10438;51.454;6.718;2022-07-25T06:49:22;10.45;;;5.85;;
20559;SDS011;10438;51.454;6.718;2022-07-25T06:51:47;11.30;;;6.05;;
20559;SDS011;10438;51.454;6.718;2022-07-25T06:54:13;10.90;;;6.05;;
20559;SDS011;10438;51.454;6.718;2022-07-25T06:56:39;12.48;;;5.82;;
20559;SDS011;10438;51.454;6.718;2022-07-25T06:59:05;18.10;;;6.63;;
20559;SDS011;10438;51.454;6.718;2022-07-25T07:01:30;14.27;;;6.05;;
20559;SDS011;10438;51.454;6.718;2022-07-25T07:03:56;13.20;;;6.25;;
20559;SDS011;10438;51.454;6.718;2022-07-25T07:06:21;10.45;;;6.50;;
20559;SDS011;10438;51.454;6.718;2022-07-25T07:08:47;11.32;;;6.15;;
20559;SDS011;10438;51.454;6.718;2022-07-25T07:11:12;13.48;;;6.35;;
20559;SDS011;10438;51.454;6.718;2022-07-25T07:13:39;11.30;;;6.50;;
20559;SDS011;10438;51.454;6.718;2022-07-25T07:16:04;14.70;;;6.22;;
20559;SDS011;10438;51.454;6.718;2022-07-25T07:18:30;12.38;;;5.80;;
20559;SDS011;10438;51.454;6.718;2022-07-25T07:20:56;13.85;;;6.10;;
20559;SDS011;10438;51.454;6.718;2022-07-25T07:23:21;12.20;;;6.15;;
20559;SDS011;10438;51.454;6.718;2022-07-25T07:25:47;16.23;;;6.50;;
20559;SDS011;10438;51.454;6.718;2022-07-25T07:28:13;12.43;;;5.72;;
20559;SDS011;10438;51.454;6.718;2022-07-25T07:30:39;12.55;;;6.25;;
20559;SDS011;10438;51.454;6.718;2022-07-25T07:33:05;7.53;;;5.70;;
20559;SDS011;10438;51.454;6.718;2022-07-25T07:35:30;12.20;;;5.55;;
20559;SDS011;10438;51.454;6.718;2022-07-25T07:37:56;12.65;;;5.75;;
20559;SDS011;10438;51.454;6.718;2022-07-25T07:40:22;10.45;;;5.85;;
20559;SDS011;10438;51.454;6.718;2022-07-25T07:42:49;13.18;;;6.10;;
20559;SDS011;10438;51.454;6.718;2022-07-25T07:47:42;9.05;;;5.65;;
20559;SDS011;10438;51.454;6.718;2022-07-25T07:50:09;7.57;;;4.63;;
20559;SDS011;10438;51.454;6.718;2022-07-25T07:52:35;8.07;;;5.45;;
20559;SDS011;10438;51.454;6.718;2022-07-25T07:55:01;9.52;;;5.60;;
20559;SDS011;10438;51.454;6.718;2022-07-25T07:57:45;7.90;;;4.65;;
20559;SDS011;10438;51.454;6.718;2022-07-25T08:00:11;11.45;;;5.30;;
20559;SDS011;10438;51.454;6.718;2022-07-25T08:02:47;7.07;;;4.90;;
20559;SDS011;10438;51.454;6.718;2022-07-25T08:05:20;10.65;;;5.32;;
20559;SDS011;10438;51.454;6.718;2022-07-25T08:07:58;9.55;;;5.30;;
20559;SDS011;10438;51.454;6.718;2022-07-25T08:10:26;10.18;;;5.07;;
20559;SDS011;10438;51.454;6.718;2022-07-25T08:12:53;9.85;;;6.10;;
20559;SDS011;10438;51.454;6.718;2022-07-25T08:15:20;14.13;;;5.53;;
20559;SDS011;10438;51.454;6.718;2022-07-25T08:17:46;11.88;;;5.47;;
20559;SDS011;10438;51.454;6.718;2022-07-25T08:20:14;8.15;;;5.10;;
20559;SDS011;10438;51.454;6.718;2022-07-25T08:22:44;11.23;;;5.72;;
20559;SDS011;10438;51.454;6.718;2022-07-25T08:25:13;9.15;;;4.80;;
20559;SDS011;10438;51.454;6.718;2022-07-25T08:27:41;8.30;;;5.10;;
20559;SDS011;10438;51.454;6.718;2022-07-25T08:30:07;13.15;;;5.80;;
20559;SDS011;10438;51.454;6.718;2022-07-25T08:32:34;8.77;;;5.20;;
20559;SDS011;10438;51.454;6.718;2022-07-25T08:35:24;7.30;;;5.10;;
20559;SDS011;10438;51.454;6.718;2022-07-25T08:37:51;8.93;;;5.20;;
20559;SDS011;10438;51.454;6.718;2022-07-25T08:40:18;11.38;;;5.00;;
20559;SDS011;10438;51.454;6.718;2022-07-25T08:42:45;9.75;;;5.55;;
20559;SDS011;10438;51.454;6.718;2022-07-25T08:45:11;9.50;;;5.63;;
20559;SDS011;10438;51.454;6.718;2022-07-25T08:47:39;9.50;;;4.97;;
20559;SDS011;10438;51.454;6.718;2022-07-25T08:50:06;7.88;;;5.57;;
20559;SDS011;10438;51.454;6.718;2022-07-25T08:52:33;13.45;;;5.80;;
20559;SDS011;10438;51.454;6.718;2022-07-25T08:55:01;10.25;;;5.43;;
20559;SDS011;10438;51.454;6.718;2022-07-25T08:57:32;8.23;;;5.80;;
20559;SDS011;10438;51.454;6.718;2022-07-25T08:59:59;15.88;;;5.55;;
20559;SDS011;10438;51.454;6.718;2022-07-25T09:02:26;18.27;;;5.70;;
20559;SDS011;10438;51.454;6.718;2022-07-25T09:04:56;9.63;;;5.55;;
20559;SDS011;10438;51.454;6.718;2022-07-25T09:07:32;10.48;;;5.30;;
20559;SDS011;10438;51.454;6.718;2022-07-25T09:10:15;12.32;;;6.00;;
20559;SDS011;10438;51.454;6.718;2022-07-25T09:12:51;11.50;;;5.22;;
20559;SDS011;10438;51.454;6.718;2022-07-25T09:15:27;12.10;;;6.00;;
20559;SDS011;10438;51.454;6.718;2022-07-25T09:17:58;9.48;;;5.57;;
20559;SDS011;10438;51.454;6.718;2022-07-25T09:20:35;8.00;;;5.50;;
20559;SDS011;10438;51.454;6.718;2022-07-25T09:23:02;8.70;;;5.65;;
20559;SDS011;10438;51.454;6.718;2022-07-25T09:25:28;21.40;;;8.18;;
20559;SDS011;10438;51.454;6.718;2022-07-25T09:27:54;11.90;;;5.70;;
20559;SDS011;10438;51.454;6.718;2022-07-25T09:30:20;9.10;;;5.22;;
20559;SDS011;10438;51.454;6.718;2022-07-25T09:32:46;9.60;;;5.35;;
20559;SDS011;10438;51.454;6.718;2022-07-25T09:35:12;13.23;;;6.60;;
20559;SDS011;10438;51.454;6.718;2022-07-25T09:37:38;30.40;;;16.90;;
20559;SDS011;10438;51.454;6.718;2022-07-25T09:40:13;10.00;;;5.53;;
20559;SDS011;10438;51.454;6.718;2022-07-25T09:42:39;9.30;;;4.38;;
20559;SDS011;10438;51.454;6.718;2022-07-25T09:45:11;9.32;;;4.40;;
20559;SDS011;10438;51.454;6.718;2022-07-25T09:47:59;7.80;;;4.72;;
20559;SDS011;10438;51.454;6.718;2022-07-25T09:50:25;9.98;;;4.43;;
20559;SDS011;10438;51.454;6.718;2022-07-25T09:52:54;9.18;;;3.90;;
20559;SDS011;10438;51.454;6.718;2022-07-25T09:55:21;6.53;;;4.00;;
20559;SDS011;10438;51.454;6.718;2022-07-25T09:57:47;6.30;;;4.50;;
20559;SDS011;10438;51.454;6.718;2022-07-25T10:00:15;7.32;;;3.88;;
20559;SDS011;10438;51.454;6.718;2022-07-25T10:02:49;8.43;;;3.70;;
20559;SDS011;10438;51.454;6.718;2022-07-25T10:08:03;9.65;;;3.50;;
20559;SDS011;10438;51.454;6.718;2022-07-25T10:10:35;8.30;;;5.13;;
20559;SDS011;10438;51.454;6.718;2022-07-25T10:15:48;8.00;;;3.63;;
20559;SDS011;10438;51.454;6.718;2022-07-25T10:18:16;5.45;;;3.30;;
20559;SDS011;10438;51.454;6.718;2022-07-25T10:20:43;6.32;;;3.63;;
20559;SDS011;10438;51.454;6.718;2022-07-25T10:23:23;7.78;;;3.50;;
20559;SDS011;10438;51.454;6.718;2022-07-25T10:26:00;7.97;;;3.28;;
20559;SDS011;10438;51.454;6.718;2022-07-25T10:28:37;5.53;;;3.42;;
20559;SDS011;10438;51.454;6.718;2022-07-25T10:31:17;5.00;;;2.95;;
20559;SDS011;10438;51.454;6.718;2022-07-25T10:33:46;5.40;;;3.22;;
20559;SDS011;10438;51.454;6.718;2022-07-25T10:36:16;6.13;;;2.78;;
20559;SDS011;10438;51.454;6.718;2022-07-25T10:38:42;8.52;;;2.83;;
20559;SDS011;10438;51.454;6.718;2022-07-25T10:41:10;7.32;;;3.13;;
20559;SDS011;10438;51.454;6.718;2022-07-25T10:43:40;5.50;;;2.50;;
20559;SDS011;10438;51.454;6.718;2022-07-25T10:46:13;7.32;;;2.83;;
20559;SDS011;10438;51.454;6.718;2022-07-25T10:48:41;6.70;;;3.15;;
20559;SDS011;10438;51.454;6.718;2022-07-25T10:51:08;5.40;;;2.95;;
20559;SDS011;10438;51.454;6.718;2022-07-25T10:53:43;6.25;;;3.45;;
20559;SDS011;10438;51.454;6.718;2022-07-25T11:01:19;6.35;;;3.17;;
20559;SDS011;10438;51.454;6.718;2022-07-25T11:03:47;5.45;;;3.30;;
20559;SDS011;10438;51.454;6.718;2022-07-25T11:06:14;10.52;;;3.47;;
20559;SDS011;10438;51.454;6.718;2022-07-25T11:08:41;6.03;;;3.28;;
20559;SDS011;10438;51.454;6.718;2022-07-25T11:11:08;8.52;;;3.40;;
20559;SDS011;10438;51.454;6.718;2022-07-25T11:13:38;6.60;;;4.25;;
20559;SDS011;10438;51.454;6.718;2022-07-25T11:16:05;5.80;;;4.03;;
20559;SDS011;10438;51.454;6.718;2022-07-25T11:18:31;6.40;;;3.65;;
20559;SDS011;10438;51.454;6.718;2022-07-25T11:21:02;5.68;;;3.22;;
20559;SDS011;10438;51.454;6.718;2022-07-25T11:23:29;5.78;;;3.03;;
20559;SDS011;10438;51.454;6.718;2022-07-25T11:28:49;5.75;;;2.60;;
20559;SDS011;10438;51.454;6.718;2022-07-25T11:31:15;5.88;;;2.67;;
20559;SDS011;10438;51.454;6.718;2022-07-25T11:33:43;10.10;;;3.42;;
20559;SDS011;10438;51.454;6.718;2022-07-25T11:36:11;5.75;;;3.20;;
20559;SDS011;10438;51.454;6.718;2022-07-25T11:38:37;5.50;;;3.00;;
20559;SDS011;10438;51.454;6.718;2022-07-25T11:41:04;6.15;;;3.13;;
20559;SDS011;10438;51.454;6.718;2022-07-25T11:43:30;6.82;;;2.72;;
20559;SDS011;10438;51.454;6.718;2022-07-25T11:48:28;5.88;;;2.53;;
20559;SDS011;10438;51.454;6.718;2022-07-25T11:51:06;9.55;;;2.70;;
20559;SDS011;10438;51.454;6.718;2022-07-25T11:53:45;8.57;;;2.45;;
20559;SDS011;10438;51.454;6.718;2022-07-25T11:56:20;6.53;;;2.88;;
20559;SDS011;10438;51.454;6.718;2022-07-25T11:58:57;6.75;;;2.75;;
20559;SDS011;10438;51.454;6.718;2022-07-25T12:01:23;7.47;;;2.78;;
20559;SDS011;10438;51.454;6.718;2022-07-25T12:04:05;8.50;;;2.72;;
20559;SDS011;10438;51.454;6.718;2022-07-25T12:06:41;6.82;;;2.95;;
20559;SDS011;10438;51.454;6.718;2022-07-25T12:09:11;7.18;;;2.60;;
20559;SDS011;10438;51.454;6.718;2022-07-25T12:11:41;6.53;;;2.60;;
20559;SDS011;10438;51.454;6.718;2022-07-25T12:14:07;9.95;;;3.25;;
20559;SDS011;10438;51.454;6.718;2022-07-25T12:16:33;6.05;;;2.80;;
20559;SDS011;10438;51.454;6.718;2022-07-25T12:18:59;5.63;;;2.60;;
20559;SDS011;10438;51.454;6.718;2022-07-25T12:21:25;9.48;;;3.25;;
20559;SDS011;10438;51.454;6.718;2022-07-25T12:23:51;6.68;;;2.80;;
20559;SDS011;10438;51.454;6.718;2022-07-25T12:26:16;5.03;;;2.60;;
20559;SDS011;10438;51.454;6.718;2022-07-25T12:28:42;6.18;;;2.60;;
20559;SDS011;10438;51.454;6.718;2022-07-25T12:31:07;6.90;;;2.85;;
20559;SDS011;10438;51.454;6.718;2022-07-25T12:33:34;7.15;;;2.90;;
20559;SDS011;10438;51.454;6.718;2022-07-25T12:36:00;6.70;;;2.40;;
20559;SDS011;10438;51.454;6.718;2022-07-25T12:38:26;9.65;;;2.90;;
20559;SDS011;10438;51.454;6.718;2022-07-25T12:40:52;6.93;;;2.47;;
20559;SDS011;10438;51.454;6.718;2022-07-25T12:43:18;8.30;;;2.80;;
20559;SDS011;10438;51.454;6.718;2022-07-25T12:45:44;6.78;;;2.88;;
20559;SDS011;10438;51.454;6.718;2022-07-25T12:48:11;11.55;;;3.13;;
20559;SDS011;10438;51.454;6.718;2022-07-25T12:50:38;6.28;;;2.80;;
20559;SDS011;10438;51.454;6.718;2022-07-25T12:53:04;8.82;;;2.63;;
20559;SDS011;10438;51.454;6.718;2022-07-25T12:55:30;7.15;;;2.67;;
20559;SDS011;10438;51.454;6.718;2022-07-25T12:57:56;5.90;;;2.67;;
20559;SDS011;10438;51.454;6.718;2022-07-25T13:00:21;4.85;;;2.30;;
20559;SDS011;10438;51.454;6.718;2022-07-25T13:02:48;6.65;;;2.55;;
20559;SDS011;10438;51.454;6.718;2022-07-25T13:05:16;6.50;;;2.20;;
20559;SDS011;10438;51.454;6.718;2022-07-25T13:07:43;5.20;;;2.25;;
20559;SDS011;10438;51.454;6.718;2022-07-25T13:10:08;9.63;;;2.45;;
20559;SDS011;10438;51.454;6.718;2022-07-25T13:12:35;5.68;;;2.10;;
20559;SDS011;10438;51.454;6.718;2022-07-25T13:15:01;10.98;;;2.58;;
20559;SDS011;10438;51.454;6.718;2022-07-25T13:17:26;5.82;;;2.50;;
20559;SDS011;10438;51.454;6.718;2022-07-25T13:19:52;7.43;;;2.67;;
20559;SDS011;10438;51.454;6.718;2022-07-25T13:22:19;8.05;;;2.28;;
20559;SDS011;10438;51.454;6.718;2022-07-25T13:24:45;5.75;;;2.40;;
20559;SDS011;10438;51.454;6.718;2022-07-25T13:27:10;5.80;;;2.38;;
20559;SDS011;10438;51.454;6.718;2022-07-25T13:29:36;4.70;;;2.00;;
20559;SDS011;10438;51.454;6.718;2022-07-25T13:32:01;7.05;;;2.45;;
20559;SDS011;10438;51.454;6.718;2022-07-25T13:34:27;4.55;;;2.20;;
20559;SDS011;10438;51.454;6.718;2022-07-25T13:36:53;9.00;;;2.33;;
20559;SDS011;10438;51.454;6.718;2022-07-25T13:39:18;4.70;;;2.20;;
20559;SDS011;10438;51.454;6.718;2022-07-25T13:41:46;6.20;;;2.03;;
20559;SDS011;10438;51.454;6.718;2022-07-25T13:44:13;7.85;;;2.47;;
20559;SDS011;10438;51.454;6.718;2022-07-25T13:46:39;7.88;;;2.20;;
20559;SDS011;10438;51.454;6.718;2022-07-25T13:49:05;7.32;;;3.65;;
20559;SDS011;10438;51.454;6.718;2022-07-25T13:51:31;7.57;;;2.50;;
20559;SDS011;10438;51.454;6.718;2022-07-25T13:53:56;4.07;;;1.88;;
20559;SDS011;10438;51.454;6.718;2022-07-25T13:56:22;11.38;;;2.17;;
20559;SDS011;10438;51.454;6.718;2022-07-25T13:58:47;4.35;;;2.00;;
20559;SDS011;10438;51.454;6.718;2022-07-25T14:01:13;5.72;;;2.17;;
20559;SDS011;10438;51.454;6.718;2022-07-25T14:03:39;6.50;;;2.22;;
20559;SDS011;10438;51.454;6.718;2022-07-25T14:06:08;4.28;;;1.90;;
20559;SDS011;10438;51.454;6.718;2022-07-25T14:08:36;9.90;;;2.10;;
20559;SDS011;10438;51.454;6.718;2022-07-25T14:11:03;6.30;;;1.95;;
20559;SDS011;10438;51.454;6.718;2022-07-25T14:13:29;4.95;;;2.30;;
20559;SDS011;10438;51.454;6.718;2022-07-25T14:15:56;6.07;;;2.50;;
20559;SDS011;10438;51.454;6.718;2022-07-25T14:18:22;4.80;;;1.92;;
20559;SDS011;10438;51.454;6.718;2022-07-25T14:20:48;7.40;;;2.05;;
20559;SDS011;10438;51.454;6.718;2022-07-25T14:23:14;7.35;;;2.08;;
20559;SDS011;10438;51.454;6.718;2022-07-25T14:25:40;5.68;;;1.88;;
20559;SDS011;10438;51.454;6.718;2022-07-25T14:28:06;5.43;;;1.92;;
20559;SDS011;10438;51.454;6.718;2022-07-25T14:30:31;9.70;;;2.58;;
20559;SDS011;10438;51.454;6.718;2022-07-25T14:32:57;8.88;;;2.28;;
20559;SDS011;10438;51.454;6.718;2022-07-25T14:35:22;8.18;;;2.70;;
20559;SDS011;10438;51.454;6.718;2022-07-25T14:37:48;7.22;;;2.30;;
20559;SDS011;10438;51.454;6.718;2022-07-25T14:40:13;9.05;;;2.83;;
20559;SDS011;10438;51.454;6.718;2022-07-25T14:42:39;12.30;;;3.63;;
20559;SDS011;10438;51.454;6.718;2022-07-25T14:45:06;4.75;;;2.10;;
20559;SDS011;10438;51.454;6.718;2022-07-25T14:47:32;7.10;;;2.33;;
20559;SDS011;10438;51.454;6.718;2022-07-25T14:49:57;7.97;;;2.92;;
20559;SDS011;10438;51.454;6.718;2022-07-25T14:52:23;7.60;;;3.03;;
20559;SDS011;10438;51.454;6.718;2022-07-25T14:54:48;12.25;;;3.13;;
20559;SDS011;10438;51.454;6.718;2022-07-25T14:57:14;10.55;;;2.80;;
20559;SDS011;10438;51.454;6.718;2022-07-25T14:59:40;8.02;;;2.95;;
20559;SDS011;10438;51.454;6.718;2022-07-25T15:02:05;6.30;;;2.38;;